sensor_id;sensor_type;location;lat;lon;timestamp;temperature;humidity
4056;DHT22;2043;52.184;8.690;2022-10-12T00:01:54;21.90;75.60
4056;DHT22;2043;52.184;8.690;2022-10-12T00:04:24;21.90;75.60
4056;DHT22;2043;52.184;8.690;2022-10-12T00:06:54;21.90;75.60
4056;DHT22;2043;52.184;8.690;2022-10-12T00:09:26;21.90;75.50
4056;DHT22;2043;52.184;8.690;2022-10-12T00:11:56;21.90;75.50
4056;DHT22;2043;52.184;8.690;2022-10-12T00:14:29;21.90;75.60
4056;DHT22;2043;52.184;8.690;2022-10-12T00:17:02;21.90;75.50
4056;DHT22;2043;52.184;8.690;2022-10-12T00:19:29;21.90;75.50
4056;DHT22;2043;52.184;8.690;2022-10-12T00:21:59;21.90;75.50
4056;DHT22;2043;52.184;8.690;2022-10-12T00:24:26;21.90;75.50
4056;DHT22;2043;52.184;8.690;2022-10-12T00:26:53;21.90;75.50
4056;DHT22;2043;52.184;8.690;2022-10-12T00:29:22;21.90;75.50
4056;DHT22;2043;52.184;8.690;2022-10-12T00:31:49;21.90;75.50
4056;DHT22;2043;52.184;8.690;2022-10-12T00:34:17;21.90;75.50
4056;DHT22;2043;52.184;8.690;2022-10-12T00:36:46;21.90;75.50
4056;DHT22;2043;52.184;8.690;2022-10-12T00:39:16;21.90;75.50
4056;DHT22;2043;52.184;8.690;2022-10-12T00:41:45;21.90;75.50
4056;DHT22;2043;52.184;8.690;2022-10-12T00:46:59;21.80;75.50
4056;DHT22;2043;52.184;8.690;2022-10-12T00:49:26;21.80;75.50
4056;DHT22;2043;52.184;8.690;2022-10-12T00:51:59;21.80;75.50
4056;DHT22;2043;52.184;8.690;2022-10-12T00:54:30;21.80;75.50
4056;DHT22;2043;52.184;8.690;2022-10-12T00:57:02;21.80;75.50
4056;DHT22;2043;52.184;8.690;2022-10-12T00:59:51;21.80;75.50
4056;DHT22;2043;52.184;8.690;2022-10-12T01:02:28;21.80;75.50
4056;DHT22;2043;52.184;8.690;2022-10-12T01:04:56;21.80;75.50
4056;DHT22;2043;52.184;8.690;2022-10-12T01:07:24;21.80;75.50
4056;DHT22;2043;52.184;8.690;2022-10-12T01:09:54;21.80;75.50
4056;DHT22;2043;52.184;8.690;2022-10-12T01:12:23;21.80;75.50
4056;DHT22;2043;52.184;8.690;2022-10-12T01:14:50;21.80;75.50
4056;DHT22;2043;52.184;8.690;2022-10-12T01:21:18;21.80;75.50
4056;DHT22;2043;52.184;8.690;2022-10-12T01:35:19;21.70;75.50
4056;DHT22;2043;52.184;8.690;2022-10-12T01:43:43;21.70;75.50
4056;DHT22;2043;52.184;8.690;2022-10-12T01:48:52;21.70;75.50
4056;DHT22;2043;52.184;8.690;2022-10-12T01:51:41;21.70;75.50
4056;DHT22;2043;52.184;8.690;2022-10-12T01:57:18;21.70;75.50
4056;DHT22;2043;52.184;8.690;2022-10-12T02:02:47;21.70;75.50
4056;DHT22;2043;52.184;8.690;2022-10-12T02:05:23;21.70;75.50
4056;DHT22;2043;52.184;8.690;2022-10-12T02:11:22;21.70;75.50
4056;DHT22;2043;52.184;8.690;2022-10-12T02:13:33;21.70;75.50
4056;DHT22;2043;52.184;8.690;2022-10-12T02:16:06;21.70;75.50
4056;DHT22;2043;52.184;8.690;2022-10-12T02:18:42;21.70;75.40
4056;DHT22;2043;52.184;8.690;2022-10-12T02:21:17;21.60;75.50
4056;DHT22;2043;52.184;8.690;2022-10-12T02:23:47;21.60;75.50
4056;DHT22;2043;52.184;8.690;2022-10-12T02:26:15;21.60;75.50
4056;DHT22;2043;52.184;8.690;2022-10-12T02:28:46;21.60;75.40
4056;DHT22;2043;52.184;8.690;2022-10-12T02:34:20;21.60;75.50
4056;DHT22;2043;52.184;8.690;2022-10-12T02:39:57;21.60;75.50
4056;DHT22;2043;52.184;8.690;2022-10-12T02:42:33;21.60;75.40
4056;DHT22;2043;52.184;8.690;2022-10-12T02:45:23;21.60;75.40
4056;DHT22;2043;52.184;8.690;2022-10-12T02:47:54;21.60;75.40
4056;DHT22;2043;52.184;8.690;2022-10-12T02:50:28;21.60;75.40
4056;DHT22;2043;52.184;8.690;2022-10-12T02:52:57;21.60;75.40
4056;DHT22;2043;52.184;8.690;2022-10-12T02:55:29;21.60;75.40
4056;DHT22;2043;52.184;8.690;2022-10-12T02:58:02;21.60;75.40
4056;DHT22;2043;52.184;8.690;2022-10-12T03:00:32;21.60;75.40
4056;DHT22;2043;52.184;8.690;2022-10-12T03:02:59;21.60;75.40
4056;DHT22;2043;52.184;8.690;2022-10-12T03:05:32;21.50;75.40
4056;DHT22;2043;52.184;8.690;2022-10-12T03:07:59;21.60;75.40
4056;DHT22;2043;52.184;8.690;2022-10-12T03:10:26;21.50;75.40
4056;DHT22;2043;52.184;8.690;2022-10-12T03:12:55;21.50;75.40
4056;DHT22;2043;52.184;8.690;2022-10-12T03:15:22;21.50;75.40
4056;DHT22;2043;52.184;8.690;2022-10-12T03:17:55;21.50;75.40
4056;DHT22;2043;52.184;8.690;2022-10-12T03:20:21;21.50;75.40
4056;DHT22;2043;52.184;8.690;2022-10-12T03:22:49;21.50;75.40
4056;DHT22;2043;52.184;8.690;2022-10-12T03:25:24;21.50;75.40
4056;DHT22;2043;52.184;8.690;2022-10-12T03:27:53;21.50;75.40
4056;DHT22;2043;52.184;8.690;2022-10-12T03:30:25;21.50;75.40
4056;DHT22;2043;52.184;8.690;2022-10-12T03:32:55;21.50;75.40
4056;DHT22;2043;52.184;8.690;2022-10-12T03:35:30;21.50;75.40
4056;DHT22;2043;52.184;8.690;2022-10-12T03:37:57;21.50;75.40
4056;DHT22;2043;52.184;8.690;2022-10-12T03:40:24;21.50;75.40
4056;DHT22;2043;52.184;8.690;2022-10-12T03:42:50;21.50;75.40
4056;DHT22;2043;52.184;8.690;2022-10-12T03:45:20;21.50;75.40
4056;DHT22;2043;52.184;8.690;2022-10-12T03:47:50;21.50;75.40
4056;DHT22;2043;52.184;8.690;2022-10-12T03:50:18;21.50;75.40
4056;DHT22;2043;52.184;8.690;2022-10-12T03:52:45;21.40;75.40
4056;DHT22;2043;52.184;8.690;2022-10-12T03:55:15;21.40;75.40
4056;DHT22;2043;52.184;8.690;2022-10-12T03:57:44;21.40;75.40
4056;DHT22;2043;52.184;8.690;2022-10-12T04:00:12;21.40;75.40
4056;DHT22;2043;52.184;8.690;2022-10-12T04:02:40;21.40;75.40
4056;DHT22;2043;52.184;8.690;2022-10-12T04:05:09;21.40;75.50
4056;DHT22;2043;52.184;8.690;2022-10-12T04:07:39;21.40;75.40
4056;DHT22;2043;52.184;8.690;2022-10-12T04:10:07;21.40;75.50
4056;DHT22;2043;52.184;8.690;2022-10-12T04:12:39;21.40;75.50
4056;DHT22;2043;52.184;8.690;2022-10-12T04:15:09;21.40;75.50
4056;DHT22;2043;52.184;8.690;2022-10-12T04:17:36;21.40;75.50
4056;DHT22;2043;52.184;8.690;2022-10-12T04:20:05;21.40;75.50
4056;DHT22;2043;52.184;8.690;2022-10-12T04:22:34;21.40;75.50
4056;DHT22;2043;52.184;8.690;2022-10-12T04:25:04;21.40;75.50
4056;DHT22;2043;52.184;8.690;2022-10-12T04:27:35;21.40;75.50
4056;DHT22;2043;52.184;8.690;2022-10-12T04:30:11;21.40;75.50
4056;DHT22;2043;52.184;8.690;2022-10-12T04:32:41;21.40;75.50
4056;DHT22;2043;52.184;8.690;2022-10-12T04:35:10;21.40;75.50
4056;DHT22;2043;52.184;8.690;2022-10-12T04:37:39;21.40;75.50
4056;DHT22;2043;52.184;8.690;2022-10-12T04:40:10;21.40;75.50
4056;DHT22;2043;52.184;8.690;2022-10-12T04:42:42;21.40;75.50
4056;DHT22;2043;52.184;8.690;2022-10-12T04:45:13;21.30;75.40
4056;DHT22;2043;52.184;8.690;2022-10-12T04:47:40;21.40;75.50
4056;DHT22;2043;52.184;8.690;2022-10-12T04:50:07;21.30;75.50
4056;DHT22;2043;52.184;8.690;2022-10-12T04:52:40;21.30;75.40
4056;DHT22;2043;52.184;8.690;2022-10-12T04:55:08;21.30;75.50
4056;DHT22;2043;52.184;8.690;2022-10-12T04:57:35;21.30;75.40
4056;DHT22;2043;52.184;8.690;2022-10-12T05:00:07;21.30;75.40
4056;DHT22;2043;52.184;8.690;2022-10-12T05:02:35;21.30;75.40
4056;DHT22;2043;52.184;8.690;2022-10-12T05:05:04;21.30;75.50
4056;DHT22;2043;52.184;8.690;2022-10-12T05:07:31;21.30;75.50
4056;DHT22;2043;52.184;8.690;2022-10-12T05:09:58;21.30;75.40
4056;DHT22;2043;52.184;8.690;2022-10-12T05:12:33;21.30;75.50
4056;DHT22;2043;52.184;8.690;2022-10-12T05:15:07;21.30;75.40
4056;DHT22;2043;52.184;8.690;2022-10-12T05:17:37;21.30;75.40
4056;DHT22;2043;52.184;8.690;2022-10-12T05:20:10;21.30;75.40
4056;DHT22;2043;52.184;8.690;2022-10-12T05:22:38;21.30;75.50
4056;DHT22;2043;52.184;8.690;2022-10-12T05:25:05;21.30;75.50
4056;DHT22;2043;52.184;8.690;2022-10-12T05:27:33;21.30;75.50
4056;DHT22;2043;52.184;8.690;2022-10-12T05:30:04;21.30;75.40
4056;DHT22;2043;52.184;8.690;2022-10-12T05:32:34;21.20;75.50
4056;DHT22;2043;52.184;8.690;2022-10-12T05:35:04;21.30;75.50
4056;DHT22;2043;52.184;8.690;2022-10-12T05:37:35;21.30;75.50
4056;DHT22;2043;52.184;8.690;2022-10-12T05:40:06;21.30;75.60
4056;DHT22;2043;52.184;8.690;2022-10-12T05:42:35;21.30;75.60
4056;DHT22;2043;52.184;8.690;2022-10-12T05:45:04;21.30;75.60
4056;DHT22;2043;52.184;8.690;2022-10-12T05:47:32;21.30;75.60
4056;DHT22;2043;52.184;8.690;2022-10-12T05:50:01;21.30;75.60
4056;DHT22;2043;52.184;8.690;2022-10-12T05:52:28;21.30;75.60
4056;DHT22;2043;52.184;8.690;2022-10-12T05:54:58;21.30;75.60
4056;DHT22;2043;52.184;8.690;2022-10-12T05:57:27;21.30;75.60
4056;DHT22;2043;52.184;8.690;2022-10-12T05:59:54;21.30;75.50
4056;DHT22;2043;52.184;8.690;2022-10-12T06:02:23;21.40;75.50
4056;DHT22;2043;52.184;8.690;2022-10-12T06:04:56;21.40;75.60
4056;DHT22;2043;52.184;8.690;2022-10-12T06:07:25;21.40;75.70
4056;DHT22;2043;52.184;8.690;2022-10-12T06:09:53;21.40;75.60
4056;DHT22;2043;52.184;8.690;2022-10-12T06:12:22;21.50;75.50
4056;DHT22;2043;52.184;8.690;2022-10-12T06:14:52;21.50;75.50
4056;DHT22;2043;52.184;8.690;2022-10-12T06:17:24;21.50;75.50
4056;DHT22;2043;52.184;8.690;2022-10-12T06:19:54;21.50;75.60
4056;DHT22;2043;52.184;8.690;2022-10-12T06:22:24;21.50;75.60
4056;DHT22;2043;52.184;8.690;2022-10-12T06:24:54;21.50;75.70
4056;DHT22;2043;52.184;8.690;2022-10-12T06:27:21;21.50;75.50
4056;DHT22;2043;52.184;8.690;2022-10-12T06:29:50;21.50;75.60
4056;DHT22;2043;52.184;8.690;2022-10-12T06:32:20;21.50;75.60
4056;DHT22;2043;52.184;8.690;2022-10-12T06:34:47;21.60;74.70
4056;DHT22;2043;52.184;8.690;2022-10-12T06:37:16;21.50;74.70
4056;DHT22;2043;52.184;8.690;2022-10-12T06:40:07;21.50;75.20
4056;DHT22;2043;52.184;8.690;2022-10-12T06:42:38;21.50;75.40
4056;DHT22;2043;52.184;8.690;2022-10-12T06:45:08;21.50;75.10
4056;DHT22;2043;52.184;8.690;2022-10-12T06:47:36;21.50;75.20
4056;DHT22;2043;52.184;8.690;2022-10-12T06:50:09;21.50;75.20
4056;DHT22;2043;52.184;8.690;2022-10-12T06:52:37;21.50;75.30
4056;DHT22;2043;52.184;8.690;2022-10-12T06:55:07;21.60;75.30
4056;DHT22;2043;52.184;8.690;2022-10-12T06:57:34;21.50;75.20
4056;DHT22;2043;52.184;8.690;2022-10-12T07:00:04;21.60;75.20
4056;DHT22;2043;52.184;8.690;2022-10-12T07:02:32;21.60;75.20
4056;DHT22;2043;52.184;8.690;2022-10-12T07:04:59;21.60;75.30
4056;DHT22;2043;52.184;8.690;2022-10-12T07:07:32;21.60;75.40
4056;DHT22;2043;52.184;8.690;2022-10-12T07:09:59;21.60;75.40
4056;DHT22;2043;52.184;8.690;2022-10-12T07:12:26;21.60;75.40
4056;DHT22;2043;52.184;8.690;2022-10-12T07:14:54;21.60;75.40
4056;DHT22;2043;52.184;8.690;2022-10-12T07:17:21;21.60;75.30
4056;DHT22;2043;52.184;8.690;2022-10-12T07:19:47;21.60;75.30
4056;DHT22;2043;52.184;8.690;2022-10-12T07:22:14;21.60;75.30
4056;DHT22;2043;52.184;8.690;2022-10-12T07:24:42;21.60;75.20
4056;DHT22;2043;52.184;8.690;2022-10-12T07:27:09;21.60;75.20
4056;DHT22;2043;52.184;8.690;2022-10-12T07:29:37;21.60;75.20
4056;DHT22;2043;52.184;8.690;2022-10-12T07:32:05;21.60;75.30
4056;DHT22;2043;52.184;8.690;2022-10-12T07:34:32;21.60;75.30
4056;DHT22;2043;52.184;8.690;2022-10-12T07:36:59;21.60;75.40
4056;DHT22;2043;52.184;8.690;2022-10-12T07:39:26;21.60;75.40
4056;DHT22;2043;52.184;8.690;2022-10-12T07:41:53;21.60;75.40
4056;DHT22;2043;52.184;8.690;2022-10-12T07:44:21;21.70;75.40
4056;DHT22;2043;52.184;8.690;2022-10-12T07:46:48;21.70;75.50
4056;DHT22;2043;52.184;8.690;2022-10-12T07:49:15;21.70;75.50
4056;DHT22;2043;52.184;8.690;2022-10-12T07:51:43;21.70;75.60
4056;DHT22;2043;52.184;8.690;2022-10-12T07:54:10;21.70;75.70
4056;DHT22;2043;52.184;8.690;2022-10-12T07:56:43;21.70;75.70
4056;DHT22;2043;52.184;8.690;2022-10-12T07:59:10;21.70;75.70
4056;DHT22;2043;52.184;8.690;2022-10-12T08:01:37;21.70;75.70
4056;DHT22;2043;52.184;8.690;2022-10-12T08:04:04;21.70;75.80
4056;DHT22;2043;52.184;8.690;2022-10-12T08:06:32;21.80;75.90
4056;DHT22;2043;52.184;8.690;2022-10-12T08:09:00;21.80;76.00
4056;DHT22;2043;52.184;8.690;2022-10-12T08:11:27;21.80;76.00
4056;DHT22;2043;52.184;8.690;2022-10-12T08:13:54;21.80;76.00
4056;DHT22;2043;52.184;8.690;2022-10-12T08:16:22;21.80;76.00
4056;DHT22;2043;52.184;8.690;2022-10-12T08:18:49;21.80;76.00
4056;DHT22;2043;52.184;8.690;2022-10-12T08:21:16;21.80;76.00
4056;DHT22;2043;52.184;8.690;2022-10-12T08:23:44;21.80;75.90
4056;DHT22;2043;52.184;8.690;2022-10-12T08:26:12;21.80;75.90
4056;DHT22;2043;52.184;8.690;2022-10-12T08:28:40;21.80;75.90
4056;DHT22;2043;52.184;8.690;2022-10-12T08:31:13;21.80;75.90
4056;DHT22;2043;52.184;8.690;2022-10-12T08:33:40;21.80;75.80
4056;DHT22;2043;52.184;8.690;2022-10-12T08:36:09;21.80;75.80
4056;DHT22;2043;52.184;8.690;2022-10-12T08:38:36;21.70;75.70
4056;DHT22;2043;52.184;8.690;2022-10-12T08:46:27;21.70;75.60
4056;DHT22;2043;52.184;8.690;2022-10-12T08:51:46;21.80;75.80
4056;DHT22;2043;52.184;8.690;2022-10-12T08:54:18;21.80;75.80
4056;DHT22;2043;52.184;8.690;2022-10-12T08:56:46;21.80;75.80
4056;DHT22;2043;52.184;8.690;2022-10-12T08:59:16;21.80;75.90
4056;DHT22;2043;52.184;8.690;2022-10-12T09:04:58;21.80;76.00
4056;DHT22;2043;52.184;8.690;2022-10-12T09:07:38;21.80;76.10
4056;DHT22;2043;52.184;8.690;2022-10-12T09:13:03;21.90;76.10
4056;DHT22;2043;52.184;8.690;2022-10-12T09:15:36;21.90;76.10
4056;DHT22;2043;52.184;8.690;2022-10-12T09:18:14;21.90;76.10
4056;DHT22;2043;52.184;8.690;2022-10-12T09:20:50;21.90;76.20
4056;DHT22;2043;52.184;8.690;2022-10-12T09:23:26;21.90;76.20
4056;DHT22;2043;52.184;8.690;2022-10-12T09:26:01;21.90;76.10
4056;DHT22;2043;52.184;8.690;2022-10-12T09:28:55;21.90;76.20
4056;DHT22;2043;52.184;8.690;2022-10-12T09:34:27;21.90;76.30
4056;DHT22;2043;52.184;8.690;2022-10-12T09:36:54;22.00;76.30
4056;DHT22;2043;52.184;8.690;2022-10-12T09:39:30;22.00;76.30
4056;DHT22;2043;52.184;8.690;2022-10-12T09:41:58;22.00;76.30
4056;DHT22;2043;52.184;8.690;2022-10-12T09:44:27;22.00;76.30
4056;DHT22;2043;52.184;8.690;2022-10-12T09:47:04;22.00;76.30
4056;DHT22;2043;52.184;8.690;2022-10-12T09:52:13;22.00;76.40
4056;DHT22;2043;52.184;8.690;2022-10-12T09:54:46;22.00;76.50
4056;DHT22;2043;52.184;8.690;2022-10-12T09:57:43;22.00;76.40
4056;DHT22;2043;52.184;8.690;2022-10-12T10:00:25;22.10;76.50
4056;DHT22;2043;52.184;8.690;2022-10-12T10:02:53;22.10;76.50
4056;DHT22;2043;52.184;8.690;2022-10-12T10:05:32;22.10;76.50
4056;DHT22;2043;52.184;8.690;2022-10-12T10:08:26;22.10;76.70
4056;DHT22;2043;52.184;8.690;2022-10-12T10:10:58;22.10;76.80
4056;DHT22;2043;52.184;8.690;2022-10-12T10:13:28;22.10;76.80
4056;DHT22;2043;52.184;8.690;2022-10-12T10:16:05;22.10;76.90
4056;DHT22;2043;52.184;8.690;2022-10-12T10:18:38;22.20;77.00
4056;DHT22;2043;52.184;8.690;2022-10-12T10:21:11;22.10;77.00
4056;DHT22;2043;52.184;8.690;2022-10-12T10:26:18;22.20;77.20
4056;DHT22;2043;52.184;8.690;2022-10-12T10:28:48;22.20;77.10
4056;DHT22;2043;52.184;8.690;2022-10-12T10:31:21;22.20;77.20
4056;DHT22;2043;52.184;8.690;2022-10-12T10:34:09;22.20;77.20
4056;DHT22;2043;52.184;8.690;2022-10-12T10:36:46;22.20;77.30
4056;DHT22;2043;52.184;8.690;2022-10-12T10:39:24;22.30;77.30
4056;DHT22;2043;52.184;8.690;2022-10-12T10:41:53;22.30;77.30
4056;DHT22;2043;52.184;8.690;2022-10-12T10:45:00;22.30;77.50
4056;DHT22;2043;52.184;8.690;2022-10-12T10:47:31;22.30;77.60
4056;DHT22;2043;52.184;8.690;2022-10-12T10:50:00;22.30;77.40
4056;DHT22;2043;52.184;8.690;2022-10-12T10:52:34;22.30;77.30
4056;DHT22;2043;52.184;8.690;2022-10-12T10:57:58;22.30;77.50
4056;DHT22;2043;52.184;8.690;2022-10-12T11:00:27;22.30;77.40
4056;DHT22;2043;52.184;8.690;2022-10-12T11:03:54;22.30;77.20
4056;DHT22;2043;52.184;8.690;2022-10-12T11:06:31;22.30;77.40
4056;DHT22;2043;52.184;8.690;2022-10-12T11:09:11;22.30;77.30
4056;DHT22;2043;52.184;8.690;2022-10-12T11:11:43;22.40;77.50
4056;DHT22;2043;52.184;8.690;2022-10-12T11:14:17;22.40;77.20
4056;DHT22;2043;52.184;8.690;2022-10-12T11:16:52;22.40;76.90
4056;DHT22;2043;52.184;8.690;2022-10-12T11:19:37;22.40;77.40
4056;DHT22;2043;52.184;8.690;2022-10-12T11:22:19;22.40;77.40
4056;DHT22;2043;52.184;8.690;2022-10-12T11:24:53;22.40;77.20
4056;DHT22;2043;52.184;8.690;2022-10-12T11:27:38;22.40;77.10
4056;DHT22;2043;52.184;8.690;2022-10-12T11:30:15;22.40;77.00
4056;DHT22;2043;52.184;8.690;2022-10-12T11:32:50;22.40;76.80
4056;DHT22;2043;52.184;8.690;2022-10-12T11:35:33;22.40;76.90
4056;DHT22;2043;52.184;8.690;2022-10-12T11:41:09;22.50;77.50
4056;DHT22;2043;52.184;8.690;2022-10-12T11:44:06;22.50;77.70
4056;DHT22;2043;52.184;8.690;2022-10-12T11:47:03;22.50;77.90
4056;DHT22;2043;52.184;8.690;2022-10-12T11:49:52;22.50;78.00
4056;DHT22;2043;52.184;8.690;2022-10-12T11:52:22;22.60;78.10
4056;DHT22;2043;52.184;8.690;2022-10-12T11:57:34;22.60;76.70
4056;DHT22;2043;52.184;8.690;2022-10-12T12:00:25;22.60;75.20
4056;DHT22;2043;52.184;8.690;2022-10-12T12:03:18;22.60;75.10
4056;DHT22;2043;52.184;8.690;2022-10-12T12:05:52;22.50;74.80
4056;DHT22;2043;52.184;8.690;2022-10-12T12:11:22;22.50;74.50
4056;DHT22;2043;52.184;8.690;2022-10-12T12:16:48;22.50;74.10
4056;DHT22;2043;52.184;8.690;2022-10-12T12:19:42;22.50;74.30
4056;DHT22;2043;52.184;8.690;2022-10-12T12:27:38;22.50;74.40
4056;DHT22;2043;52.184;8.690;2022-10-12T12:30:22;22.50;74.30
4056;DHT22;2043;52.184;8.690;2022-10-12T12:32:59;22.60;74.20
4056;DHT22;2043;52.184;8.690;2022-10-12T12:35:49;22.60;74.50
4056;DHT22;2043;52.184;8.690;2022-10-12T12:38:22;22.60;74.30
4056;DHT22;2043;52.184;8.690;2022-10-12T12:40:58;22.60;74.20
4056;DHT22;2043;52.184;8.690;2022-10-12T12:46:05;22.70;74.10
4056;DHT22;2043;52.184;8.690;2022-10-12T13:19:27;22.90;72.70
4056;DHT22;2043;52.184;8.690;2022-10-12T13:22:07;23.00;72.50
4056;DHT22;2043;52.184;8.690;2022-10-12T13:24:44;23.00;72.00
4056;DHT22;2043;52.184;8.690;2022-10-12T13:27:28;23.00;72.30
4056;DHT22;2043;52.184;8.690;2022-10-12T13:30:09;23.10;71.80
4056;DHT22;2043;52.184;8.690;2022-10-12T13:40:37;23.20;72.00
4056;DHT22;2043;52.184;8.690;2022-10-12T13:45:59;23.30;71.60
4056;DHT22;2043;52.184;8.690;2022-10-12T13:48:31;23.30;71.30
4056;DHT22;2043;52.184;8.690;2022-10-12T13:51:27;23.30;71.40
4056;DHT22;2043;52.184;8.690;2022-10-12T13:53:57;23.40;71.00
4056;DHT22;2043;52.184;8.690;2022-10-12T13:56:27;23.40;71.00
4056;DHT22;2043;52.184;8.690;2022-10-12T13:58:57;23.40;70.80
4056;DHT22;2043;52.184;8.690;2022-10-12T14:01:25;23.50;70.60
4056;DHT22;2043;52.184;8.690;2022-10-12T14:04:02;23.50;70.60
4056;DHT22;2043;52.184;8.690;2022-10-12T14:06:33;23.50;70.50
4056;DHT22;2043;52.184;8.690;2022-10-12T14:09:23;23.60;70.30
4056;DHT22;2043;52.184;8.690;2022-10-12T14:11:53;23.60;70.20
4056;DHT22;2043;52.184;8.690;2022-10-12T14:14:40;23.60;71.10
4056;DHT22;2043;52.184;8.690;2022-10-12T14:17:16;23.60;70.80
4056;DHT22;2043;52.184;8.690;2022-10-12T14:22:21;23.50;69.50
4056;DHT22;2043;52.184;8.690;2022-10-12T14:25:14;23.50;69.50
4056;DHT22;2043;52.184;8.690;2022-10-12T14:27:56;23.50;70.10
4056;DHT22;2043;52.184;8.690;2022-10-12T14:30:33;23.50;70.60
4056;DHT22;2043;52.184;8.690;2022-10-12T14:35:45;23.50;70.90
4056;DHT22;2043;52.184;8.690;2022-10-12T14:38:44;23.50;71.10
4056;DHT22;2043;52.184;8.690;2022-10-12T14:41:42;23.60;71.30
4056;DHT22;2043;52.184;8.690;2022-10-12T14:44:15;23.60;71.30
4056;DHT22;2043;52.184;8.690;2022-10-12T14:47:03;23.60;71.40
4056;DHT22;2043;52.184;8.690;2022-10-12T14:49:44;23.60;71.50
4056;DHT22;2043;52.184;8.690;2022-10-12T14:52:32;23.60;71.50
4056;DHT22;2043;52.184;8.690;2022-10-12T14:55:08;23.60;71.60
4056;DHT22;2043;52.184;8.690;2022-10-12T14:57:39;23.60;71.80
4056;DHT22;2043;52.184;8.690;2022-10-12T15:00:43;23.70;71.80
4056;DHT22;2043;52.184;8.690;2022-10-12T15:03:08;23.70;71.80
4056;DHT22;2043;52.184;8.690;2022-10-12T15:05:36;23.60;71.80
4056;DHT22;2043;52.184;8.690;2022-10-12T15:08:05;23.60;71.90
4056;DHT22;2043;52.184;8.690;2022-10-12T15:10:37;23.70;71.90
4056;DHT22;2043;52.184;8.690;2022-10-12T15:13:04;23.60;72.00
4056;DHT22;2043;52.184;8.690;2022-10-12T15:18:04;23.60;72.00
4056;DHT22;2043;52.184;8.690;2022-10-12T15:20:34;23.70;72.10
4056;DHT22;2043;52.184;8.690;2022-10-12T15:23:08;23.70;72.20
4056;DHT22;2043;52.184;8.690;2022-10-12T15:28:18;23.70;70.50
4056;DHT22;2043;52.184;8.690;2022-10-12T15:30:48;23.80;71.20
4056;DHT22;2043;52.184;8.690;2022-10-12T15:33:44;23.80;71.00
4056;DHT22;2043;52.184;8.690;2022-10-12T15:36:11;23.90;70.60
4056;DHT22;2043;52.184;8.690;2022-10-12T15:38:43;23.90;70.20
4056;DHT22;2043;52.184;8.690;2022-10-12T15:41:16;23.90;70.80
4056;DHT22;2043;52.184;8.690;2022-10-12T15:43:49;23.90;71.50
4056;DHT22;2043;52.184;8.690;2022-10-12T15:46:19;23.90;71.60
4056;DHT22;2043;52.184;8.690;2022-10-12T15:48:46;23.90;71.60
4056;DHT22;2043;52.184;8.690;2022-10-12T15:51:24;23.90;71.70
4056;DHT22;2043;52.184;8.690;2022-10-12T15:53:54;23.90;71.80
4056;DHT22;2043;52.184;8.690;2022-10-12T15:56:27;23.90;71.90
4056;DHT22;2043;52.184;8.690;2022-10-12T15:58:58;23.90;72.00
4056;DHT22;2043;52.184;8.690;2022-10-12T16:01:32;23.80;72.10
4056;DHT22;2043;52.184;8.690;2022-10-12T16:04:08;23.80;72.20
4056;DHT22;2043;52.184;8.690;2022-10-12T16:06:40;23.80;72.20
4056;DHT22;2043;52.184;8.690;2022-10-12T16:09:07;23.80;72.30
4056;DHT22;2043;52.184;8.690;2022-10-12T16:11:35;23.70;72.40
4056;DHT22;2043;52.184;8.690;2022-10-12T16:14:04;23.70;72.50
4056;DHT22;2043;52.184;8.690;2022-10-12T16:16:34;23.60;72.60
4056;DHT22;2043;52.184;8.690;2022-10-12T16:19:01;23.60;72.60
4056;DHT22;2043;52.184;8.690;2022-10-12T16:21:28;23.60;72.70
4056;DHT22;2043;52.184;8.690;2022-10-12T16:23:55;23.50;72.80
4056;DHT22;2043;52.184;8.690;2022-10-12T16:26:22;23.50;72.80
4056;DHT22;2043;52.184;8.690;2022-10-12T16:28:49;23.50;73.00
4056;DHT22;2043;52.184;8.690;2022-10-12T16:31:21;23.50;73.00
4056;DHT22;2043;52.184;8.690;2022-10-12T16:33:50;23.50;73.10
4056;DHT22;2043;52.184;8.690;2022-10-12T16:36:22;23.50;73.10
4056;DHT22;2043;52.184;8.690;2022-10-12T16:38:51;23.40;73.20
4056;DHT22;2043;52.184;8.690;2022-10-12T16:41:18;23.40;73.20
4056;DHT22;2043;52.184;8.690;2022-10-12T16:43:54;23.40;73.30
4056;DHT22;2043;52.184;8.690;2022-10-12T16:46:21;23.40;73.30
4056;DHT22;2043;52.184;8.690;2022-10-12T16:48:50;23.40;73.40
4056;DHT22;2043;52.184;8.690;2022-10-12T16:51:19;23.30;73.40
4056;DHT22;2043;52.184;8.690;2022-10-12T16:53:49;23.30;73.50
4056;DHT22;2043;52.184;8.690;2022-10-12T16:56:16;23.30;73.50
4056;DHT22;2043;52.184;8.690;2022-10-12T16:58:45;23.30;73.50
4056;DHT22;2043;52.184;8.690;2022-10-12T17:01:12;23.20;73.60
4056;DHT22;2043;52.184;8.690;2022-10-12T17:03:40;23.20;73.60
4056;DHT22;2043;52.184;8.690;2022-10-12T17:06:12;23.20;73.60
4056;DHT22;2043;52.184;8.690;2022-10-12T17:08:42;23.20;73.70
4056;DHT22;2043;52.184;8.690;2022-10-12T17:11:16;23.20;73.70
4056;DHT22;2043;52.184;8.690;2022-10-12T17:13:46;23.20;73.70
4056;DHT22;2043;52.184;8.690;2022-10-12T17:16:15;23.10;73.80
4056;DHT22;2043;52.184;8.690;2022-10-12T17:19:01;23.10;73.80
4056;DHT22;2043;52.184;8.690;2022-10-12T17:21:32;23.10;73.80
4056;DHT22;2043;52.184;8.690;2022-10-12T17:24:04;23.10;73.80
4056;DHT22;2043;52.184;8.690;2022-10-12T17:26:35;23.10;73.80
4056;DHT22;2043;52.184;8.690;2022-10-12T17:29:08;23.10;73.80
4056;DHT22;2043;52.184;8.690;2022-10-12T17:31:38;23.00;73.90
4056;DHT22;2043;52.184;8.690;2022-10-12T17:34:34;23.00;73.90
4056;DHT22;2043;52.184;8.690;2022-10-12T17:37:06;23.00;73.90
4056;DHT22;2043;52.184;8.690;2022-10-12T17:39:40;23.00;73.90
4056;DHT22;2043;52.184;8.690;2022-10-12T17:42:14;23.00;74.00
4056;DHT22;2043;52.184;8.690;2022-10-12T17:44:41;23.00;74.00
4056;DHT22;2043;52.184;8.690;2022-10-12T17:47:10;23.00;74.00
4056;DHT22;2043;52.184;8.690;2022-10-12T17:49:37;23.00;74.00
4056;DHT22;2043;52.184;8.690;2022-10-12T17:52:07;22.90;74.10
4056;DHT22;2043;52.184;8.690;2022-10-12T17:54:42;22.90;74.10
4056;DHT22;2043;52.184;8.690;2022-10-12T17:57:11;22.90;74.10
4056;DHT22;2043;52.184;8.690;2022-10-12T17:59:48;22.90;74.10
4056;DHT22;2043;52.184;8.690;2022-10-12T18:02:17;22.90;74.10
4056;DHT22;2043;52.184;8.690;2022-10-12T18:04:46;22.90;74.20
4056;DHT22;2043;52.184;8.690;2022-10-12T18:07:18;22.90;74.20
4056;DHT22;2043;52.184;8.690;2022-10-12T18:09:48;22.80;74.20
4056;DHT22;2043;52.184;8.690;2022-10-12T18:12:20;22.80;74.30
4056;DHT22;2043;52.184;8.690;2022-10-12T18:14:49;22.80;74.30
4056;DHT22;2043;52.184;8.690;2022-10-12T18:17:21;22.80;74.30
4056;DHT22;2043;52.184;8.690;2022-10-12T18:19:55;22.80;74.40
4056;DHT22;2043;52.184;8.690;2022-10-12T18:22:22;22.80;74.40
4056;DHT22;2043;52.184;8.690;2022-10-12T18:24:49;22.80;74.40
4056;DHT22;2043;52.184;8.690;2022-10-12T18:27:19;22.80;74.40
4056;DHT22;2043;52.184;8.690;2022-10-12T18:29:51;22.80;74.40
4056;DHT22;2043;52.184;8.690;2022-10-12T18:32:21;22.80;74.50
4056;DHT22;2043;52.184;8.690;2022-10-12T18:34:51;22.70;74.50
4056;DHT22;2043;52.184;8.690;2022-10-12T18:37:21;22.70;74.50
4056;DHT22;2043;52.184;8.690;2022-10-12T18:39:49;22.70;74.50
4056;DHT22;2043;52.184;8.690;2022-10-12T18:42:17;22.70;74.50
4056;DHT22;2043;52.184;8.690;2022-10-12T18:44:46;22.70;74.50
4056;DHT22;2043;52.184;8.690;2022-10-12T18:47:15;22.70;74.50
4056;DHT22;2043;52.184;8.690;2022-10-12T18:49:49;22.70;74.50
4056;DHT22;2043;52.184;8.690;2022-10-12T18:52:19;22.70;74.50
4056;DHT22;2043;52.184;8.690;2022-10-12T18:54:49;22.70;74.50